createdAt,value
2023-03-27T00:00:22.434Z,5.2
2023-03-27T00:01:24.037Z,5.2
2023-03-27T00:02:25.230Z,5.2
2023-03-27T00:03:26.973Z,5.2
2023-03-27T00:04:28.320Z,5.2
2023-03-27T00:05:29.476Z,5.2
2023-03-27T00:06:30.885Z,5.2
2023-03-27T00:07:32.051Z,5.1
2023-03-27T00:08:33.232Z,5.1
2023-03-27T00:09:34.376Z,5.1
2023-03-27T00:10:35.544Z,5.1
2023-03-27T00:11:36.707Z,5.1
2023-03-27T00:12:37.877Z,5.1
2023-03-27T00:13:42.654Z,5.1
2023-03-27T00:14:52.304Z,5.1
2023-03-27T00:15:53.469Z,5.1
2023-03-27T00:16:54.751Z,5.1
2023-03-27T00:17:56.329Z,5.1
2023-03-27T00:18:57.568Z,5.1
2023-03-27T00:19:58.722Z,5.1
2023-03-27T00:20:59.887Z,5.1
2023-03-27T00:22:01.053Z,5
2023-03-27T00:23:02.353Z,5
2023-03-27T00:24:03.525Z,5
2023-03-27T00:25:04.713Z,5
2023-03-27T00:26:05.853Z,5
2023-03-27T00:27:07.013Z,5
2023-03-27T00:28:08.184Z,5
2023-03-27T00:29:09.351Z,5
2023-03-27T00:30:10.515Z,5
2023-03-27T00:31:11.787Z,5
2023-03-27T00:32:13.481Z,5
2023-03-27T00:33:14.628Z,5
2023-03-27T00:34:15.658Z,5
2023-03-27T00:35:16.820Z,5
2023-03-27T00:36:18.267Z,5
2023-03-27T00:37:19.427Z,5
2023-03-27T00:38:20.590Z,5
2023-03-27T00:39:21.671Z,4.9
2023-03-27T00:40:22.829Z,4.9
2023-03-27T00:41:24.057Z,4.9
2023-03-27T00:42:25.474Z,4.9
2023-03-27T00:43:26.630Z,4.9
2023-03-27T00:44:27.829Z,4.9
2023-03-27T00:45:28.965Z,4.9
2023-03-27T00:46:30.153Z,4.9
2023-03-27T00:47:31.493Z,4.9
2023-03-27T00:48:32.744Z,4.8
2023-03-27T00:49:34.220Z,4.8
2023-03-27T00:50:35.349Z,4.8
2023-03-27T00:51:36.519Z,4.8
2023-03-27T00:52:37.483Z,4.8
2023-03-27T00:53:38.644Z,4.8
2023-03-27T00:54:39.836Z,4.8
2023-03-27T00:55:41.225Z,4.8
2023-03-27T00:56:42.408Z,4.8
2023-03-27T00:57:43.554Z,4.7
2023-03-27T00:58:44.720Z,4.7
2023-03-27T00:59:45.903Z,4.7
2023-03-27T01:00:47.046Z,4.7
2023-03-27T01:01:48.225Z,4.7
2023-03-27T01:02:49.859Z,4.7
2023-03-27T01:03:51.346Z,4.7
2023-03-27T01:04:53.019Z,4.7
2023-03-27T01:05:54.176Z,4.7
2023-03-27T01:06:55.345Z,4.6
2023-03-27T01:08:00.210Z,4.6
2023-03-27T01:09:02.926Z,4.6
2023-03-27T01:10:04.121Z,4.6
2023-03-27T01:11:05.260Z,4.6
2023-03-27T01:12:06.417Z,4.6
2023-03-27T01:13:07.627Z,4.6
2023-03-27T01:14:08.745Z,4.6
2023-03-27T01:15:09.952Z,4.5
2023-03-27T01:16:11.178Z,4.5
2023-03-27T01:17:12.511Z,4.5
2023-03-27T01:18:13.705Z,4.5
2023-03-27T01:19:14.843Z,4.5
2023-03-27T01:20:16.042Z,4.5
2023-03-27T01:21:17.173Z,4.5
2023-03-27T01:22:18.339Z,4.4
2023-03-27T01:23:35.395Z,4.4
2023-03-27T01:25:01.728Z,4.4
2023-03-27T01:26:02.878Z,4.4
2023-03-27T01:27:04.032Z,4.4
2023-03-27T01:28:05.197Z,4.4
2023-03-27T01:29:06.366Z,4.4
2023-03-27T01:30:07.525Z,4.4
2023-03-27T01:31:08.807Z,4.3
2023-03-27T01:32:09.941Z,4.3
2023-03-27T01:33:11.103Z,4.3
2023-03-27T01:34:12.300Z,4.3
2023-03-27T01:35:13.446Z,4.3
2023-03-27T01:36:14.782Z,4.3
2023-03-27T01:37:15.906Z,4.3
2023-03-27T01:38:17.068Z,4.3
2023-03-27T01:39:18.230Z,4.2
2023-03-27T01:40:19.403Z,4.2
2023-03-27T01:41:20.585Z,4.2
2023-03-27T01:42:21.733Z,4.2
2023-03-27T01:43:22.896Z,4.2
2023-03-27T01:44:24.087Z,4.2
2023-03-27T01:45:46.019Z,4.2
2023-03-27T01:46:47.241Z,4.1
2023-03-27T01:47:48.393Z,4.1
2023-03-27T01:48:49.685Z,4.1
2023-03-27T01:49:50.877Z,4.1
2023-03-27T01:50:52.022Z,4.1
2023-03-27T01:51:53.607Z,4.1
2023-03-27T01:52:54.734Z,4.1
2023-03-27T01:53:55.901Z,4.1
2023-03-27T01:54:57.068Z,4
2023-03-27T01:55:58.250Z,4
2023-03-27T01:56:59.458Z,4
2023-03-27T01:58:00.671Z,4
2023-03-27T01:59:01.839Z,4
2023-03-27T02:00:17.176Z,4
2023-03-27T02:01:20.506Z,4
2023-03-27T02:02:21.787Z,4
2023-03-27T02:03:23.068Z,3.9
2023-03-27T02:04:24.255Z,3.9
2023-03-27T02:05:25.724Z,3.9
2023-03-27T02:06:26.951Z,3.9
2023-03-27T02:07:28.138Z,3.9
2023-03-27T02:08:29.285Z,3.8
2023-03-27T02:09:30.479Z,3.8
2023-03-27T02:10:31.638Z,3.8
2023-03-27T02:11:32.825Z,3.8
2023-03-27T02:12:33.977Z,3.8
2023-03-27T02:13:35.131Z,3.7
2023-03-27T02:14:36.338Z,3.7
2023-03-27T02:15:37.460Z,3.7
2023-03-27T02:16:38.665Z,3.7
2023-03-27T02:17:40.076Z,3.7
2023-03-27T02:18:41.407Z,3.6
2023-03-27T02:19:42.568Z,3.6
2023-03-27T02:20:43.758Z,3.6
2023-03-27T02:21:44.902Z,3.6
2023-03-27T02:22:46.094Z,3.5
2023-03-27T02:23:47.224Z,3.5
2023-03-27T02:24:48.427Z,3.5
2023-03-27T02:25:49.566Z,3.5
2023-03-27T02:26:50.730Z,3.4
2023-03-27T02:27:51.911Z,3.4
2023-03-27T02:28:53.088Z,3.4
2023-03-27T02:29:54.225Z,3.4
2023-03-27T02:31:05.906Z,3.3
2023-03-27T02:32:36.258Z,3.3
2023-03-27T02:33:37.762Z,3.3
2023-03-27T02:34:38.938Z,3.3
2023-03-27T02:35:40.112Z,3.2
2023-03-27T02:36:41.526Z,3.2
2023-03-27T02:37:42.736Z,3.2
2023-03-27T02:38:43.905Z,3.2
2023-03-27T02:39:45.084Z,3.2
2023-03-27T02:40:46.241Z,3.1
2023-03-27T02:41:47.407Z,3.1
2023-03-27T02:42:48.574Z,3.1
2023-03-27T02:43:49.738Z,3
2023-03-27T02:44:50.934Z,3
2023-03-27T02:45:52.308Z,3
2023-03-27T02:46:53.829Z,3
2023-03-27T02:47:55.036Z,3
2023-03-27T02:48:56.263Z,2.9
2023-03-27T02:49:57.573Z,2.9
2023-03-27T02:50:58.838Z,2.9
2023-03-27T02:52:00.635Z,2.9
2023-03-27T02:53:01.782Z,2.8
2023-03-27T02:54:02.942Z,2.8
2023-03-27T02:55:04.137Z,2.8
2023-03-27T02:56:05.271Z,2.8
2023-03-27T02:57:06.488Z,2.7
2023-03-27T02:58:07.721Z,2.7
2023-03-27T02:59:08.893Z,2.7
2023-03-27T03:00:10.066Z,2.6
2023-03-27T03:01:11.212Z,2.6
2023-03-27T03:02:12.482Z,2.6
2023-03-27T03:03:13.756Z,2.6
2023-03-27T03:04:15.457Z,2.5
2023-03-27T03:05:16.640Z,2.5
2023-03-27T03:06:17.784Z,2.5
2023-03-27T03:07:18.978Z,2.5
2023-03-27T03:08:20.120Z,2.5
2023-03-27T03:09:21.287Z,2.4
2023-03-27T03:10:22.460Z,2.4
2023-03-27T03:11:23.610Z,2.4
2023-03-27T03:12:24.773Z,2.4
2023-03-27T03:13:25.936Z,2.4
2023-03-27T03:14:27.104Z,2.3
2023-03-27T03:15:28.289Z,2.3
2023-03-27T03:16:29.458Z,2.3
2023-03-27T03:17:30.850Z,2.3
2023-03-27T03:18:32.074Z,2.3
2023-03-27T03:19:33.241Z,2.3
2023-03-27T03:20:34.426Z,2.3
2023-03-27T03:21:35.577Z,2.2
2023-03-27T03:22:36.818Z,2.2
2023-03-27T03:23:38.040Z,2.2
2023-03-27T03:24:39.203Z,2.2
2023-03-27T03:25:40.424Z,2.2
2023-03-27T03:26:41.554Z,2.2
2023-03-27T03:27:42.712Z,2.2
2023-03-27T03:28:59.917Z,2.2
2023-03-27T03:30:02.602Z,2.2
2023-03-27T03:31:03.787Z,2.2
2023-03-27T03:32:04.953Z,2.2
2023-03-27T03:33:06.160Z,2.1
2023-03-27T03:34:07.396Z,2.1
2023-03-27T03:35:08.568Z,2.1
2023-03-27T03:36:09.760Z,2.1
2023-03-27T03:37:11.060Z,2.1
2023-03-27T03:38:12.464Z,2.1
2023-03-27T03:39:13.686Z,2.1
2023-03-27T03:40:14.843Z,2
2023-03-27T03:41:16.034Z,2
2023-03-27T03:42:22.524Z,2
2023-03-27T03:43:25.212Z,2
2023-03-27T03:44:26.387Z,2
2023-03-27T03:45:27.549Z,1.9
2023-03-27T03:46:28.757Z,1.9
2023-03-27T03:47:30.236Z,1.9
2023-03-27T03:48:31.553Z,1.9
2023-03-27T03:49:32.721Z,1.9
2023-03-27T03:50:33.888Z,1.9
2023-03-27T03:51:35.056Z,1.8
2023-03-27T03:52:36.212Z,1.8
2023-03-27T03:53:37.426Z,1.8
2023-03-27T03:54:38.586Z,1.8
2023-03-27T03:55:39.809Z,1.8
2023-03-27T03:56:40.971Z,1.8
2023-03-27T03:57:42.352Z,1.8
2023-03-27T03:58:43.520Z,1.8
2023-03-27T03:59:44.683Z,1.7
2023-03-27T04:00:45.855Z,1.7
2023-03-27T04:01:47.025Z,1.7
2023-03-27T04:02:48.239Z,1.7
2023-03-27T04:03:49.708Z,1.7
2023-03-27T04:04:51.306Z,1.6
2023-03-27T04:05:52.287Z,1.6
2023-03-27T04:06:53.444Z,1.6
2023-03-27T04:07:54.608Z,1.6
2023-03-27T04:08:55.804Z,1.6
2023-03-27T04:09:56.936Z,1.6
2023-03-27T04:10:58.317Z,1.5
2023-03-27T04:11:59.817Z,1.5
2023-03-27T04:13:01.019Z,1.5
2023-03-27T04:14:02.157Z,1.5
2023-03-27T04:15:03.316Z,1.5
2023-03-27T04:16:04.555Z,1.5
2023-03-27T04:17:05.930Z,1.5
2023-03-27T04:18:07.166Z,1.4
2023-03-27T04:19:08.824Z,1.4
2023-03-27T04:20:10.080Z,1.4
2023-03-27T04:21:11.025Z,1.4
2023-03-27T04:22:12.173Z,1.4
2023-03-27T04:23:13.342Z,1.4
2023-03-27T04:24:14.573Z,1.4
2023-03-27T04:25:15.719Z,1.4
2023-03-27T04:26:16.929Z,1.4
2023-03-27T04:27:18.201Z,1.3
2023-03-27T04:28:19.357Z,1.3
2023-03-27T04:29:20.520Z,1.3
2023-03-27T04:30:21.788Z,1.3
2023-03-27T04:31:22.987Z,1.3
2023-03-27T04:32:24.314Z,1.3
2023-03-27T04:33:25.546Z,1.3
2023-03-27T04:34:32.234Z,1.2
2023-03-27T04:35:33.440Z,1.2
2023-03-27T04:36:34.736Z,1.2
2023-03-27T04:37:35.978Z,1.2
2023-03-27T04:38:37.250Z,1.2
2023-03-27T04:39:38.498Z,1.2
2023-03-27T04:40:39.634Z,1.2
2023-03-27T04:41:40.817Z,1.2
2023-03-27T04:42:41.972Z,1.2
2023-03-27T04:43:43.256Z,1.2
2023-03-27T04:44:44.419Z,1.2
2023-03-27T04:45:45.588Z,1.1
2023-03-27T04:46:46.781Z,1.1
2023-03-27T04:47:47.988Z,1.1
2023-03-27T04:48:49.578Z,1.1
2023-03-27T04:49:50.756Z,1.1
2023-03-27T04:50:52.013Z,1.1
2023-03-27T04:51:53.192Z,1.1
2023-03-27T04:52:54.339Z,1.1
2023-03-27T04:53:55.503Z,1.1
2023-03-27T04:54:56.928Z,1.1
2023-03-27T04:55:58.061Z,1
2023-03-27T04:56:59.755Z,1
2023-03-27T04:58:01.011Z,1
2023-03-27T04:59:02.174Z,1
2023-03-27T05:00:03.349Z,1
2023-03-27T05:01:04.521Z,1
2023-03-27T05:02:06.075Z,1
2023-03-27T05:03:07.410Z,1
2023-03-27T05:04:09.044Z,1
2023-03-27T05:05:10.207Z,1
2023-03-27T05:06:11.365Z,1
2023-03-27T05:07:12.666Z,1
2023-03-27T05:08:13.826Z,1
2023-03-27T05:09:14.984Z,1
2023-03-27T05:10:16.272Z,1
2023-03-27T05:11:21.985Z,1
2023-03-27T05:12:23.177Z,1
2023-03-27T05:13:24.316Z,1
2023-03-27T05:14:25.477Z,1
2023-03-27T05:15:26.646Z,1
2023-03-27T05:16:27.859Z,1
2023-03-27T05:17:29.092Z,1
2023-03-27T05:18:30.336Z,1
2023-03-27T05:19:31.500Z,1
2023-03-27T05:20:32.669Z,1
2023-03-27T05:22:45.085Z,1.1
2023-03-27T05:23:46.214Z,1.1
2023-03-27T05:24:47.377Z,1.1
2023-03-27T05:25:59.625Z,1.1
2023-03-27T05:27:01.853Z,1.2
2023-03-27T05:28:03.051Z,1.2
2023-03-27T05:29:04.183Z,1.2
2023-03-27T05:30:05.361Z,1.2
2023-03-27T05:31:06.576Z,1.2
2023-03-27T05:32:07.820Z,1.2
2023-03-27T05:33:09.014Z,1.2
2023-03-27T05:34:10.161Z,1.2
2023-03-27T05:35:11.342Z,1.3
2023-03-27T05:36:12.490Z,1.3
2023-03-27T05:37:13.654Z,1.3
2023-03-27T05:38:14.832Z,1.3
2023-03-27T05:39:15.860Z,1.3
2023-03-27T05:40:17.039Z,1.3
2023-03-27T05:41:18.432Z,1.3
2023-03-27T05:42:19.569Z,1.3
2023-03-27T05:43:20.750Z,1.3
2023-03-27T05:44:21.896Z,1.3
2023-03-27T05:45:23.059Z,1.4
2023-03-27T05:46:24.249Z,1.4
2023-03-27T05:47:25.726Z,1.4
2023-03-27T05:48:26.898Z,1.4
2023-03-27T05:49:28.056Z,1.4
2023-03-27T05:50:29.264Z,1.4
2023-03-27T05:51:30.488Z,1.4
2023-03-27T05:52:31.651Z,1.4
2023-03-27T05:53:32.832Z,1.4
2023-03-27T05:54:33.977Z,1.4
2023-03-27T05:55:35.148Z,1.5
2023-03-27T05:56:36.492Z,1.5
2023-03-27T05:57:37.695Z,1.5
2023-03-27T05:58:39.191Z,1.5
2023-03-27T05:59:40.322Z,1.5
2023-03-27T06:00:41.487Z,1.5
2023-03-27T06:01:42.651Z,1.5
2023-03-27T06:02:43.955Z,1.5
2023-03-27T06:03:45.623Z,1.6
2023-03-27T06:04:47.242Z,1.6
2023-03-27T06:05:48.409Z,1.6
2023-03-27T06:06:49.579Z,1.6
2023-03-27T06:07:50.591Z,1.7
2023-03-27T06:08:51.766Z,1.7
2023-03-27T06:09:52.814Z,1.8
2023-03-27T06:10:54.057Z,1.8
2023-03-27T06:11:56.136Z,1.9
2023-03-27T06:12:57.270Z,1.9
2023-03-27T06:13:58.785Z,2
2023-03-27T06:15:00.140Z,2.1
2023-03-27T06:16:01.324Z,2.2
2023-03-27T06:17:02.610Z,2.2
2023-03-27T06:18:03.838Z,2.2
2023-03-27T06:19:05.244Z,2.2
2023-03-27T06:20:06.392Z,2.2
2023-03-27T06:21:07.402Z,2.2
2023-03-27T06:22:08.565Z,2.3
2023-03-27T06:23:09.741Z,2.3
2023-03-27T06:24:11.008Z,2.3
2023-03-27T06:25:12.159Z,2.3
2023-03-27T06:26:13.324Z,2.3
2023-03-27T06:27:14.514Z,2.3
2023-03-27T06:28:15.655Z,2.4
2023-03-27T06:29:16.644Z,2.4
2023-03-27T06:30:17.964Z,2.4
2023-03-27T06:31:19.413Z,2.4
2023-03-27T06:32:20.798Z,2.5
2023-03-27T06:33:22.218Z,2.5
2023-03-27T06:34:23.206Z,2.5
2023-03-27T06:35:24.357Z,2.6
2023-03-27T06:36:25.556Z,2.7
2023-03-27T06:37:26.821Z,2.7
2023-03-27T06:38:28.016Z,2.8
2023-03-27T06:39:29.166Z,2.8
2023-03-27T06:40:30.315Z,2.8
2023-03-27T06:41:31.479Z,2.9
2023-03-27T06:42:32.672Z,2.9
2023-03-27T06:43:33.845Z,2.9
2023-03-27T06:44:35.235Z,2.9
2023-03-27T06:45:36.400Z,3
2023-03-27T06:46:44.971Z,3
2023-03-27T06:47:53.644Z,3
2023-03-27T06:49:21.973Z,3.1
2023-03-27T06:50:23.420Z,3.1
2023-03-27T06:51:24.820Z,3.1
2023-03-27T06:52:25.978Z,3.2
2023-03-27T06:53:28.540Z,3.2
2023-03-27T06:54:37.662Z,3.2
2023-03-27T06:55:38.840Z,3.3
2023-03-27T06:56:40.032Z,3.4
2023-03-27T06:57:41.508Z,3.5
2023-03-27T06:58:42.651Z,3.6
2023-03-27T06:59:43.615Z,3.8
2023-03-27T07:00:44.792Z,3.9
2023-03-27T07:01:45.971Z,3.9
2023-03-27T07:02:47.242Z,4
2023-03-27T07:03:48.378Z,4.1
2023-03-27T07:04:58.039Z,4.2
2023-03-27T07:06:06.335Z,4.3
2023-03-27T07:07:07.646Z,4.4
2023-03-27T07:08:18.914Z,4.5
2023-03-27T07:09:26.100Z,4.5
2023-03-27T07:10:27.280Z,4.6
2023-03-27T07:11:30.017Z,4.5
2023-03-27T07:12:33.148Z,4.5
2023-03-27T07:13:34.360Z,4.5
2023-03-27T07:14:35.623Z,4.4
2023-03-27T07:15:37.305Z,4.4
2023-03-27T07:16:38.568Z,4.3
2023-03-27T07:17:48.465Z,4.3
2023-03-27T07:18:50.533Z,4.3
2023-03-27T07:19:51.711Z,4.3
2023-03-27T07:20:52.870Z,4.2
2023-03-27T07:21:54.025Z,4.2
2023-03-27T07:22:56.499Z,4.2
2023-03-27T07:23:57.564Z,4.1
2023-03-27T07:24:58.728Z,4.2
2023-03-27T07:25:59.764Z,4.2
2023-03-27T07:27:01.158Z,4.2
2023-03-27T07:28:03.736Z,4.3
2023-03-27T07:29:07.278Z,4.3
2023-03-27T07:30:08.420Z,4.4
2023-03-27T07:31:16.482Z,4.4
2023-03-27T07:32:57.123Z,4.4
2023-03-27T07:33:58.692Z,4.4
2023-03-27T07:35:00.063Z,4.4
2023-03-27T07:36:01.329Z,4.4
2023-03-27T07:37:02.717Z,4.5
2023-03-27T07:38:03.870Z,4.4
2023-03-27T07:39:05.035Z,4.4
2023-03-27T07:40:06.055Z,4.4
2023-03-27T07:41:07.233Z,4.4
2023-03-27T07:42:08.376Z,4.4
2023-03-27T07:43:09.543Z,4.5
2023-03-27T07:44:10.849Z,4.4
2023-03-27T07:45:12.039Z,4.4
2023-03-27T07:46:13.232Z,4.5
2023-03-27T07:47:14.703Z,4.5
2023-03-27T07:48:15.860Z,4.6
2023-03-27T07:49:17.491Z,4.7
2023-03-27T07:50:18.736Z,4.6
2023-03-27T07:51:19.908Z,4.7
2023-03-27T07:52:20.708Z,4.8
2023-03-27T07:53:33.084Z,4.8
2023-03-27T07:54:35.765Z,4.9
2023-03-27T07:55:36.949Z,5
2023-03-27T07:56:37.985Z,5
2023-03-27T07:57:50.080Z,4.9
2023-03-27T07:59:04.148Z,4.9
2023-03-27T08:00:05.324Z,4.9
2023-03-27T08:01:06.295Z,4.9
2023-03-27T08:02:07.805Z,5
2023-03-27T08:03:09.017Z,5
2023-03-27T08:04:11.532Z,5
2023-03-27T08:05:13.301Z,5.1
2023-03-27T08:06:14.940Z,5.1
2023-03-27T08:07:16.113Z,5.2
2023-03-27T08:08:17.268Z,5.3
2023-03-27T08:09:18.443Z,5.2
2023-03-27T08:10:19.601Z,5.2
2023-03-27T08:11:29.978Z,5.4
2023-03-27T08:12:32.144Z,5.4
2023-03-27T08:13:33.135Z,5.4
2023-03-27T08:14:34.073Z,5.4
2023-03-27T08:15:35.289Z,5.3
2023-03-27T08:16:36.486Z,5.3
2023-03-27T08:17:38.106Z,5.2
2023-03-27T08:18:39.492Z,5.3
2023-03-27T08:19:40.656Z,5.3
2023-03-27T08:20:41.820Z,5.4
2023-03-27T08:21:42.981Z,5.5
2023-03-27T08:22:44.179Z,5.6
2023-03-27T08:23:45.318Z,5.6
2023-03-27T08:24:46.478Z,5.6
2023-03-27T08:25:47.646Z,5.6
2023-03-27T08:26:48.808Z,5.6
2023-03-27T08:27:50.005Z,5.6
2023-03-27T08:28:51.334Z,5.7
2023-03-27T08:29:52.545Z,5.7
2023-03-27T08:30:53.731Z,5.8
2023-03-27T08:32:04.366Z,5.8
2023-03-27T08:33:05.582Z,5.8
2023-03-27T08:34:06.769Z,5.8
2023-03-27T08:35:07.941Z,5.9
2023-03-27T08:36:10.541Z,5.9
2023-03-27T08:37:12.084Z,6
2023-03-27T08:38:24.060Z,6
2023-03-27T08:39:28.036Z,6.2
2023-03-27T08:40:29.196Z,6.1
2023-03-27T08:41:30.504Z,6.1
2023-03-27T08:42:31.669Z,6.1
2023-03-27T08:43:32.845Z,6.1
2023-03-27T08:44:33.999Z,6
2023-03-27T08:45:35.162Z,6
2023-03-27T08:46:36.369Z,6.1
2023-03-27T08:47:37.844Z,6.1
2023-03-27T08:48:39.302Z,6.2
2023-03-27T08:49:40.460Z,6.4
2023-03-27T08:50:41.467Z,6.5
2023-03-27T08:51:42.546Z,6.7
2023-03-27T08:52:43.523Z,6.9
2023-03-27T08:53:44.692Z,7
2023-03-27T08:54:45.839Z,7
2023-03-27T08:55:46.997Z,6.9
2023-03-27T08:56:48.183Z,6.8
2023-03-27T08:57:49.438Z,6.7
2023-03-27T08:58:50.461Z,6.6
2023-03-27T08:59:51.590Z,6.5
2023-03-27T09:00:52.750Z,6.4
2023-03-27T09:01:53.800Z,6.4
2023-03-27T09:02:55.153Z,6.4
2023-03-27T09:03:57.093Z,6.4
2023-03-27T09:04:58.664Z,6.4
2023-03-27T09:05:59.925Z,6.5
2023-03-27T09:07:01.159Z,6.6
2023-03-27T09:08:02.332Z,6.6
2023-03-27T09:09:03.508Z,6.6
2023-03-27T09:10:04.464Z,6.7
2023-03-27T09:11:05.780Z,6.7
2023-03-27T09:12:07.313Z,6.7
2023-03-27T09:13:08.720Z,6.7
2023-03-27T09:14:09.905Z,6.7
2023-03-27T09:15:11.057Z,6.7
2023-03-27T09:16:12.258Z,6.8
2023-03-27T09:17:13.737Z,6.8
2023-03-27T09:18:14.872Z,6.9
2023-03-27T09:19:16.044Z,6.9
2023-03-27T09:20:17.211Z,6.9
2023-03-27T09:21:18.645Z,6.9
2023-03-27T09:22:19.978Z,6.8
2023-03-27T09:23:21.303Z,6.7
2023-03-27T09:24:22.499Z,6.6
2023-03-27T09:25:23.642Z,6.5
2023-03-27T09:26:24.805Z,6.4
2023-03-27T09:27:25.969Z,6.3
2023-03-27T09:28:27.132Z,6.3
2023-03-27T09:29:28.309Z,6.2
2023-03-27T09:30:29.475Z,6.1
2023-03-27T09:31:30.656Z,6.1
2023-03-27T09:32:33.195Z,6.1
2023-03-27T09:33:35.523Z,6.2
2023-03-27T09:34:36.503Z,6.2
2023-03-27T09:35:37.677Z,6.2
2023-03-27T09:36:39.122Z,6.3
2023-03-27T09:37:40.286Z,6.5
2023-03-27T09:38:41.450Z,6.7
2023-03-27T09:39:42.649Z,6.8
2023-03-27T09:40:43.788Z,6.8
2023-03-27T09:41:44.953Z,6.9
2023-03-27T09:42:46.118Z,6.9
2023-03-27T09:43:47.280Z,6.9
2023-03-27T09:44:48.470Z,7
2023-03-27T09:45:49.612Z,7
2023-03-27T09:46:50.888Z,7.1
2023-03-27T09:47:52.376Z,7.1
2023-03-27T09:48:53.583Z,7.1
2023-03-27T09:49:54.774Z,7.1
2023-03-27T09:50:56.113Z,7.2
2023-03-27T09:51:57.970Z,7.2
2023-03-27T09:52:59.170Z,7.2
2023-03-27T09:54:00.334Z,7.2
2023-03-27T09:55:01.503Z,7.2
2023-03-27T09:56:03.381Z,7.3
2023-03-27T09:57:04.592Z,7.2
2023-03-27T09:58:05.856Z,7.2
2023-03-27T09:59:07.023Z,7.2
2023-03-27T10:00:08.211Z,7.2
2023-03-27T10:01:09.225Z,7.3
2023-03-27T10:02:10.506Z,7.3
2023-03-27T10:03:11.829Z,7.4
2023-03-27T10:04:13.302Z,7.5
2023-03-27T10:05:14.589Z,7.6
2023-03-27T10:06:15.753Z,7.6
2023-03-27T10:07:16.912Z,7.5
2023-03-27T10:08:17.878Z,7.5
2023-03-27T10:09:19.047Z,7.5
2023-03-27T10:10:20.277Z,7.6
2023-03-27T10:11:21.487Z,7.5
2023-03-27T10:12:22.652Z,7.5
2023-03-27T10:13:23.822Z,7.5
2023-03-27T10:14:25.001Z,7.5
2023-03-27T10:15:26.164Z,7.5
2023-03-27T10:16:27.339Z,7.5
2023-03-27T10:17:28.550Z,7.5
2023-03-27T10:18:29.828Z,7.5
2023-03-27T10:19:31.059Z,7.5
2023-03-27T10:20:32.250Z,7.6
2023-03-27T10:21:33.391Z,7.7
2023-03-27T10:22:34.847Z,7.7
2023-03-27T10:23:36.040Z,7.8
2023-03-27T10:24:45.253Z,7.9
2023-03-27T10:25:47.145Z,7.9
2023-03-27T10:26:48.292Z,8
2023-03-27T10:27:49.449Z,8.1
2023-03-27T10:28:50.610Z,8.2
2023-03-27T10:29:51.777Z,8.3
2023-03-27T10:30:52.958Z,8.3
2023-03-27T10:31:54.116Z,8.2
2023-03-27T10:32:55.287Z,8.2
2023-03-27T10:33:56.557Z,8.2
2023-03-27T10:34:57.501Z,8.2
2023-03-27T10:35:59.174Z,8.2
2023-03-27T10:37:00.441Z,8.2
2023-03-27T10:38:01.602Z,8.1
2023-03-27T10:39:02.778Z,8.1
2023-03-27T10:40:03.938Z,8
2023-03-27T10:41:05.145Z,8
2023-03-27T10:42:06.272Z,8
2023-03-27T10:43:07.439Z,7.9
2023-03-27T10:44:08.603Z,7.8
2023-03-27T10:45:09.769Z,7.6
2023-03-27T10:46:11.054Z,7.5
2023-03-27T10:47:12.593Z,7.4
2023-03-27T10:48:16.875Z,7.4
2023-03-27T10:49:18.021Z,7.4
2023-03-27T10:50:19.159Z,7.3
2023-03-27T10:51:20.354Z,7.2
2023-03-27T10:52:21.494Z,7.2
2023-03-27T10:53:22.709Z,7.2
2023-03-27T10:54:24.389Z,7.2
2023-03-27T10:55:25.825Z,7.1
2023-03-27T10:56:27.006Z,7.1
2023-03-27T10:57:28.166Z,7.1
2023-03-27T10:58:29.314Z,7.1
2023-03-27T10:59:40.867Z,7.1
2023-03-27T11:04:49.243Z,7.3
2023-03-27T11:05:50.445Z,7.4
2023-03-27T11:06:51.594Z,7.5
2023-03-27T11:07:52.762Z,7.7
2023-03-27T11:08:53.922Z,7.7
2023-03-27T11:09:55.091Z,7.8
2023-03-27T11:10:56.371Z,7.9
2023-03-27T11:11:58.228Z,8
2023-03-27T11:12:59.383Z,8.1
2023-03-27T11:14:00.548Z,8.1
2023-03-27T11:15:01.709Z,8.2
2023-03-27T11:16:02.704Z,8.3
2023-03-27T11:17:03.870Z,8.4
2023-03-27T11:18:05.468Z,8.4
2023-03-27T11:19:06.699Z,8.5
2023-03-27T11:20:07.997Z,8.5
2023-03-27T11:21:09.181Z,8.4
2023-03-27T11:22:13.318Z,8.3
2023-03-27T11:23:14.436Z,8.1
2023-03-27T11:24:15.622Z,8
2023-03-27T11:25:16.673Z,7.9
2023-03-27T11:26:17.858Z,7.8
2023-03-27T11:27:19.002Z,7.6
2023-03-27T11:28:20.169Z,7.5
2023-03-27T11:29:21.390Z,7.4
2023-03-27T11:30:22.553Z,7.2
2023-03-27T11:31:23.761Z,7.1
2023-03-27T11:32:25.098Z,7
2023-03-27T11:33:26.338Z,6.8
2023-03-27T11:34:29.184Z,6.6
2023-03-27T11:35:30.839Z,6.5
2023-03-27T11:36:32.051Z,6.3
2023-03-27T11:37:33.194Z,6.1
2023-03-27T11:38:34.360Z,5.9
2023-03-27T11:39:35.525Z,5.8
2023-03-27T11:40:36.685Z,5.6
2023-03-27T11:41:37.884Z,5.5
2023-03-27T11:42:39.019Z,5.4
2023-03-27T11:43:40.185Z,5.3
2023-03-27T11:44:41.347Z,5.1
2023-03-27T11:45:42.516Z,5
2023-03-27T11:46:43.788Z,4.8
2023-03-27T11:47:45.183Z,4.7
2023-03-27T11:48:46.613Z,4.5
2023-03-27T11:49:47.786Z,4.4
2023-03-27T11:50:48.982Z,4.2
2023-03-27T11:51:50.484Z,4.1
2023-03-27T11:52:51.614Z,4
2023-03-27T11:53:52.776Z,3.9
2023-03-27T11:54:53.937Z,3.8
2023-03-27T11:55:55.103Z,3.8
2023-03-27T11:56:56.345Z,3.9
2023-03-27T11:57:57.574Z,4
2023-03-27T11:58:58.731Z,4
2023-03-27T11:59:59.885Z,4.1
2023-03-27T12:01:01.056Z,4.1
2023-03-27T12:02:02.321Z,4.1
2023-03-27T12:03:03.920Z,4.2
2023-03-27T12:04:05.832Z,4.2
2023-03-27T12:05:07.550Z,4.2
2023-03-27T12:06:08.718Z,4.2
2023-03-27T12:07:12.031Z,4.2
2023-03-27T12:08:15.966Z,4.2
2023-03-27T12:09:17.094Z,4.2
2023-03-27T12:10:18.258Z,4.2
2023-03-27T12:11:21.074Z,4.2
2023-03-27T12:12:22.311Z,4.3
2023-03-27T12:13:26.466Z,4.3
2023-03-27T12:14:44.136Z,4.3
2023-03-27T12:15:47.300Z,4.4
2023-03-27T12:16:48.479Z,4.4
2023-03-27T12:17:49.634Z,4.5
2023-03-27T12:19:00.845Z,4.5
2023-03-27T12:20:30.260Z,4.7
2023-03-27T12:21:31.449Z,4.7
2023-03-27T12:22:32.587Z,4.8
2023-03-27T12:23:33.749Z,4.8
2023-03-27T12:24:35.016Z,4.9
2023-03-27T12:25:36.388Z,5
2023-03-27T12:26:37.692Z,5.1
2023-03-27T12:27:38.855Z,5.1
2023-03-27T12:28:41.205Z,5.1
2023-03-27T12:29:42.421Z,5
2023-03-27T12:30:43.598Z,5
2023-03-27T12:31:44.801Z,5.1
2023-03-27T12:32:46.098Z,5.1
2023-03-27T12:33:47.652Z,5.2
2023-03-27T12:34:48.812Z,5.2
2023-03-27T12:35:50.291Z,5.2
2023-03-27T12:36:51.691Z,5.2
2023-03-27T12:37:52.827Z,5.1
2023-03-27T12:38:53.987Z,5.1
2023-03-27T12:39:55.233Z,5
2023-03-27T12:40:56.509Z,4.8
2023-03-27T12:41:58.381Z,4.7
2023-03-27T12:42:59.523Z,4.6
2023-03-27T12:44:00.691Z,4.5
2023-03-27T12:45:01.992Z,4.4
2023-03-27T12:46:03.322Z,4.3
2023-03-27T12:47:06.596Z,4.2
2023-03-27T12:48:10.245Z,4.2
2023-03-27T12:49:11.435Z,4.1
2023-03-27T12:50:12.596Z,4
2023-03-27T12:51:13.780Z,4
2023-03-27T12:52:15.172Z,3.9
2023-03-27T12:53:16.385Z,3.9
2023-03-27T12:54:17.544Z,3.9
2023-03-27T12:55:18.714Z,4
2023-03-27T12:56:19.891Z,4
2023-03-27T12:57:21.202Z,4
2023-03-27T12:58:23.237Z,4
2023-03-27T12:59:24.795Z,4
2023-03-27T13:00:26.442Z,4
2023-03-27T13:01:27.661Z,4
2023-03-27T13:02:36.883Z,4.1
2023-03-27T13:03:38.765Z,4
2023-03-27T13:04:40.300Z,4
2023-03-27T13:05:41.454Z,4.1
2023-03-27T13:06:42.716Z,4.1
2023-03-27T13:07:44.038Z,4.1
2023-03-27T13:08:45.166Z,4.1
2023-03-27T13:09:46.325Z,4.1
2023-03-27T13:10:47.305Z,4.2
2023-03-27T13:11:48.532Z,4.3
2023-03-27T13:12:49.653Z,4.3
2023-03-27T13:13:50.827Z,4.4
2023-03-27T13:14:51.989Z,4.4
2023-03-27T13:15:53.158Z,4.4
2023-03-27T13:16:54.506Z,4.4
2023-03-27T13:17:55.754Z,4.4
2023-03-27T13:18:56.954Z,4.5
2023-03-27T13:19:58.119Z,4.5
2023-03-27T13:20:59.295Z,4.5
2023-03-27T13:22:00.487Z,4.5
2023-03-27T13:23:01.656Z,4.6
2023-03-27T13:24:02.810Z,4.6
2023-03-27T13:25:03.952Z,4.6
2023-03-27T13:26:05.131Z,4.7
2023-03-27T13:27:06.313Z,4.7
2023-03-27T13:28:07.467Z,4.7
2023-03-27T13:29:08.634Z,4.8
2023-03-27T13:30:09.799Z,4.8
2023-03-27T13:31:10.985Z,4.9
2023-03-27T13:32:12.307Z,4.9
2023-03-27T13:33:13.493Z,4.9
2023-03-27T13:34:14.684Z,5
2023-03-27T13:35:15.850Z,5.1
2023-03-27T13:36:16.847Z,5.3
2023-03-27T13:37:18.680Z,5.4
2023-03-27T13:38:19.838Z,5.5
2023-03-27T13:39:21.121Z,5.6
2023-03-27T13:40:22.344Z,5.6
2023-03-27T13:41:23.513Z,5.7
2023-03-27T13:42:24.739Z,5.7
2023-03-27T13:43:25.957Z,5.7
2023-03-27T13:44:27.123Z,5.7
2023-03-27T13:45:28.280Z,5.7
2023-03-27T13:46:29.517Z,5.8
2023-03-27T13:47:30.733Z,5.8
2023-03-27T13:48:32.030Z,5.9
2023-03-27T13:49:33.179Z,5.9
2023-03-27T13:50:34.348Z,5.9
2023-03-27T13:51:35.517Z,6
2023-03-27T13:52:36.690Z,6.1
2023-03-27T13:53:37.870Z,6.1
2023-03-27T13:54:38.818Z,6.2
2023-03-27T13:55:39.834Z,6.2
2023-03-27T13:56:41.029Z,6.3
2023-03-27T13:57:42.289Z,6.3
2023-03-27T13:58:43.238Z,6.3
2023-03-27T13:59:44.400Z,6.4
2023-03-27T14:00:45.832Z,6.4
2023-03-27T14:01:46.838Z,6.5
2023-03-27T14:02:48.140Z,6.6
2023-03-27T14:03:49.587Z,6.7
2023-03-27T14:04:50.958Z,6.7
2023-03-27T14:05:52.121Z,6.6
2023-03-27T14:06:56.400Z,6.5
2023-03-27T14:07:57.582Z,6.4
2023-03-27T14:08:58.757Z,6.2
2023-03-27T14:09:59.898Z,6
2023-03-27T14:11:01.062Z,5.8
2023-03-27T14:12:02.234Z,5.6
2023-03-27T14:13:03.670Z,5.4
2023-03-27T14:14:04.791Z,5.2
2023-03-27T14:15:06.963Z,5
2023-03-27T14:16:11.503Z,4.9
2023-03-27T14:17:12.781Z,4.7
2023-03-27T14:18:13.976Z,4.6
2023-03-27T14:19:15.117Z,4.4
2023-03-27T14:20:16.280Z,4.3
2023-03-27T14:21:24.696Z,4.2
2023-03-27T14:22:39.682Z,4.2
2023-03-27T14:23:40.870Z,4.2
2023-03-27T14:24:42.052Z,4.2